createdAt,value
2022-11-12T00:00:34.552Z,4.20
2022-11-12T00:03:20.942Z,4.50
2022-11-12T00:06:06.408Z,4.47
2022-11-12T00:08:52.207Z,4.85
2022-11-12T00:11:39.712Z,4.00
2022-11-12T00:14:25.591Z,4.80
2022-11-12T00:17:11.424Z,4.45
2022-11-12T00:19:57.048Z,6.25
2022-11-12T00:22:42.860Z,5.57
2022-11-12T00:25:28.700Z,5.03
2022-11-12T00:28:14.323Z,5.13
2022-11-12T00:31:00.117Z,6.55
2022-11-12T00:33:45.812Z,6.15
2022-11-12T00:36:31.701Z,5.53
2022-11-12T00:39:17.337Z,6.15
2022-11-12T00:42:02.984Z,7.03
2022-11-12T00:44:49.935Z,7.18
2022-11-12T00:47:35.493Z,7.47
2022-11-12T00:50:21.508Z,7.95
2022-11-12T00:53:07.600Z,7.30
2022-11-12T00:55:53.459Z,7.97
2022-11-12T00:58:39.268Z,9.10
2022-11-12T01:01:26.021Z,7.85
2022-11-12T01:04:11.987Z,7.78
2022-11-12T01:06:57.790Z,8.60
2022-11-12T01:09:43.711Z,7.30
2022-11-12T01:12:31.526Z,8.48
2022-11-12T01:15:16.973Z,8.13
2022-11-12T01:18:02.794Z,8.32
2022-11-12T01:20:48.639Z,8.20
2022-11-12T01:23:36.307Z,7.65
2022-11-12T01:26:23.393Z,7.78
2022-11-12T01:29:09.145Z,8.02
2022-11-12T01:31:55.134Z,7.53
2022-11-12T01:34:40.652Z,8.02
2022-11-12T01:37:27.443Z,8.00
2022-11-12T01:40:13.398Z,7.93
2022-11-12T01:42:59.477Z,7.95
2022-11-12T01:45:51.129Z,7.57
2022-11-12T01:48:41.542Z,7.53
2022-11-12T01:51:34.422Z,7.70
2022-11-12T01:54:22.024Z,7.53
2022-11-12T01:57:11.642Z,7.65
2022-11-12T02:00:02.265Z,7.25
2022-11-12T02:02:55.201Z,7.38
2022-11-12T02:05:42.643Z,6.32
2022-11-12T02:08:30.237Z,6.22
2022-11-12T02:11:21.247Z,6.63
2022-11-12T02:14:07.030Z,6.43
2022-11-12T02:16:53.385Z,5.95
2022-11-12T02:19:38.902Z,5.97
2022-11-12T02:22:24.468Z,6.30
2022-11-12T02:25:16.966Z,6.45
2022-11-12T02:30:50.636Z,6.25
2022-11-12T02:33:36.473Z,5.85
2022-11-12T02:36:22.602Z,5.60
2022-11-12T02:39:08.047Z,5.60
2022-11-12T02:41:54.110Z,5.93
2022-11-12T02:44:39.888Z,5.28
2022-11-12T02:47:25.364Z,5.65
2022-11-12T02:50:11.336Z,5.63
2022-11-12T02:52:57.183Z,6.07
2022-11-12T02:55:44.024Z,4.75
2022-11-12T02:58:30.421Z,5.65
2022-11-12T03:01:16.324Z,5.50
2022-11-12T03:04:01.564Z,5.50
2022-11-12T03:06:47.564Z,5.07
2022-11-12T03:09:33.265Z,5.22
2022-11-12T03:12:18.785Z,4.80
2022-11-12T03:15:04.746Z,5.03
2022-11-12T03:17:50.701Z,5.60
2022-11-12T03:20:36.231Z,5.40
2022-11-12T03:23:22.193Z,5.30
2022-11-12T03:26:07.993Z,4.68
2022-11-12T03:28:54.241Z,5.05
2022-11-12T03:31:39.916Z,4.93
2022-11-12T03:34:25.496Z,5.28
2022-11-12T03:37:11.013Z,4.70
2022-11-12T03:39:56.546Z,5.10
2022-11-12T03:42:46.725Z,5.15
2022-11-12T03:45:32.365Z,5.05
2022-11-12T03:48:18.102Z,4.85
2022-11-12T03:51:03.982Z,5.05
2022-11-12T03:53:49.769Z,5.43
2022-11-12T03:56:35.807Z,5.15
2022-11-12T03:59:21.175Z,5.00
2022-11-12T04:02:07.012Z,5.78
2022-11-12T04:05:12.811Z,5.55
2022-11-12T04:08:20.884Z,6.00
2022-11-12T04:11:10.187Z,5.88
2022-11-12T04:13:55.807Z,5.70
2022-11-12T04:16:59.885Z,6.95
2022-11-12T04:20:17.945Z,6.03
2022-11-12T04:23:03.792Z,5.47
2022-11-12T04:26:08.176Z,5.68
2022-11-12T04:29:12.303Z,4.60
2022-11-12T04:31:57.719Z,4.63
2022-11-12T04:34:43.890Z,4.25
2022-11-12T04:37:44.480Z,4.65
2022-11-12T04:40:49.212Z,4.30
2022-11-12T04:43:53.492Z,4.35
2022-11-12T04:46:39.167Z,4.10
2022-11-12T04:49:24.578Z,4.53
2022-11-12T04:52:10.898Z,4.05
2022-11-12T04:54:57.433Z,4.53
2022-11-12T04:57:42.811Z,4.50
2022-11-12T05:00:28.962Z,4.80
2022-11-12T05:03:15.432Z,5.10
2022-11-12T05:06:03.158Z,5.22
2022-11-12T05:08:48.737Z,5.13
2022-11-12T05:11:34.642Z,5.68
2022-11-12T05:14:20.124Z,5.13
2022-11-12T05:17:05.933Z,4.85
2022-11-12T05:19:51.293Z,5.68
2022-11-12T05:22:44.303Z,6.22
2022-11-12T05:25:33.689Z,5.47
2022-11-12T05:28:18.874Z,7.60
2022-11-12T05:31:04.592Z,6.43
2022-11-12T05:33:50.350Z,6.30
2022-11-12T05:36:35.668Z,5.85
2022-11-12T05:39:21.414Z,7.05
2022-11-12T05:42:12.846Z,7.22
2022-11-12T05:44:59.702Z,6.30
2022-11-12T05:47:45.370Z,6.68
2022-11-12T05:50:39.783Z,6.15
2022-11-12T05:53:31.180Z,5.53
2022-11-12T05:56:16.943Z,6.40
2022-11-12T05:59:04.963Z,6.75
2022-11-12T06:01:50.734Z,6.30
2022-11-12T06:04:36.417Z,5.80
2022-11-12T06:07:22.079Z,5.15
2022-11-12T06:10:08.331Z,5.45
2022-11-12T06:12:54.347Z,4.90
2022-11-12T06:15:40.139Z,5.25
2022-11-12T06:18:27.038Z,4.60
2022-11-12T06:21:27.479Z,5.25
2022-11-12T06:24:13.073Z,5.97
2022-11-12T06:26:58.488Z,5.40
2022-11-12T06:29:44.555Z,5.65
2022-11-12T06:32:30.074Z,5.75
2022-11-12T06:35:16.875Z,6.10
2022-11-12T06:38:02.412Z,5.70
2022-11-12T06:40:47.982Z,5.07
2022-11-12T06:43:34.369Z,6.65
2022-11-12T06:46:20.045Z,5.28
2022-11-12T06:49:08.368Z,5.28
2022-11-12T06:51:54.226Z,5.75
2022-11-12T06:54:39.769Z,5.13
2022-11-12T06:57:25.857Z,4.70
2022-11-12T07:00:12.213Z,4.03
2022-11-12T07:02:58.069Z,4.97
2022-11-12T07:05:43.922Z,4.32
2022-11-12T07:08:29.647Z,5.30
2022-11-12T07:11:16.337Z,4.20
2022-11-12T07:14:04.541Z,5.10
2022-11-12T07:16:50.285Z,5.15
2022-11-12T07:19:35.799Z,4.95
2022-11-12T07:22:21.394Z,5.50
2022-11-12T07:25:07.396Z,7.45
2022-11-12T07:27:53.614Z,6.60
2022-11-12T07:30:39.345Z,5.60
2022-11-12T07:33:25.843Z,5.65
2022-11-12T07:36:14.942Z,5.20
2022-11-12T07:39:00.581Z,4.15
2022-11-12T07:41:45.863Z,4.97
2022-11-12T07:44:31.529Z,6.03
2022-11-12T07:47:16.975Z,6.65
2022-11-12T07:50:02.960Z,5.78
2022-11-12T07:52:48.549Z,5.82
2022-11-12T07:55:33.985Z,6.28
2022-11-12T07:58:19.665Z,5.45
2022-11-12T08:01:09.755Z,5.97
2022-11-12T08:03:55.977Z,5.80
2022-11-12T08:06:41.808Z,7.35
2022-11-12T08:09:27.469Z,7.68
2022-11-12T08:12:13.049Z,6.88
2022-11-12T08:14:59.001Z,6.78
2022-11-12T08:17:44.581Z,6.75
2022-11-12T08:20:30.850Z,6.38
2022-11-12T08:23:16.259Z,5.93
2022-11-12T08:26:04.058Z,7.05
2022-11-12T08:28:49.967Z,7.43
2022-11-12T08:31:35.679Z,7.38
2022-11-12T08:34:22.827Z,5.85
2022-11-12T08:37:09.182Z,5.97
2022-11-12T08:39:55.326Z,5.85
2022-11-12T08:42:40.963Z,6.47
2022-11-12T08:45:27.863Z,5.80
2022-11-12T08:48:14.602Z,5.43
2022-11-12T08:51:02.393Z,4.90
2022-11-12T08:53:47.873Z,5.90
2022-11-12T08:56:34.128Z,5.05
2022-11-12T08:59:19.464Z,5.18
2022-11-12T09:02:07.213Z,4.50
2022-11-12T09:04:53.156Z,4.82
2022-11-12T09:07:54.280Z,5.13
2022-11-12T09:10:40.857Z,4.13
2022-11-12T09:13:26.528Z,4.50
2022-11-12T09:16:12.235Z,4.32
2022-11-12T09:18:57.659Z,4.20
2022-11-12T09:21:43.131Z,4.70
2022-11-12T09:24:29.067Z,4.13
2022-11-12T09:27:14.671Z,3.58
2022-11-12T09:30:00.851Z,3.97
2022-11-12T09:32:46.242Z,4.30
2022-11-12T09:35:32.367Z,4.00
2022-11-12T09:38:18.565Z,3.65
2022-11-12T09:41:42.840Z,4.10
2022-11-12T09:44:34.158Z,3.53
2022-11-12T09:47:34.514Z,3.63
2022-11-12T09:50:37.462Z,3.10
2022-11-12T09:56:15.023Z,3.33
2022-11-12T09:59:00.737Z,3.33
2022-11-12T10:02:19.319Z,3.60
2022-11-12T10:05:47.773Z,3.47
2022-11-12T10:08:55.143Z,2.85
2022-11-12T10:12:10.101Z,3.17
2022-11-12T10:15:34.306Z,4.32
2022-11-12T10:18:47.464Z,6.65
2022-11-12T10:21:50.110Z,14.27
2022-11-12T10:24:39.167Z,10.20
2022-11-12T10:27:32.493Z,6.80
2022-11-12T10:30:21.014Z,6.78
2022-11-12T10:33:06.799Z,5.60
2022-11-12T10:35:53.567Z,4.57
2022-11-12T10:38:41.605Z,5.05
2022-11-12T10:41:31.029Z,4.22
2022-11-12T10:44:26.758Z,3.65
2022-11-12T10:47:42.102Z,2.90
2022-11-12T10:50:43.044Z,3.70
2022-11-12T10:53:37.190Z,4.53
2022-11-12T10:56:32.516Z,4.10
2022-11-12T10:59:20.431Z,3.97
2022-11-12T11:02:17.102Z,3.60
2022-11-12T11:05:21.410Z,3.47
2022-11-12T11:08:10.310Z,3.17
2022-11-12T11:11:17.825Z,2.50
2022-11-12T11:14:22.176Z,2.58
2022-11-12T11:17:17.488Z,2.30
2022-11-12T11:20:05.623Z,2.65
2022-11-12T11:23:10.376Z,2.20
2022-11-12T11:26:02.133Z,2.53
2022-11-12T11:29:19.484Z,2.38
2022-11-12T11:32:41.069Z,2.53
2022-11-12T11:35:32.373Z,2.03
2022-11-12T11:38:39.816Z,2.25
2022-11-12T11:41:37.071Z,2.15
2022-11-12T11:44:53.327Z,2.20
2022-11-12T11:48:02.667Z,1.88
2022-11-12T11:51:13.231Z,2.30
2022-11-12T11:54:36.168Z,1.92
2022-11-12T11:57:47.951Z,1.83
2022-11-12T12:01:07.074Z,1.57
2022-11-12T12:04:04.097Z,1.75
2022-11-12T12:07:09.486Z,2.40
2022-11-12T12:09:58.847Z,1.60
2022-11-12T12:12:47.242Z,1.42
2022-11-12T12:16:17.031Z,1.60
2022-11-12T12:19:14.461Z,1.50
2022-11-12T12:22:03.763Z,1.38
2022-11-12T12:24:56.763Z,1.92
2022-11-12T12:28:02.612Z,1.42
2022-11-12T12:30:53.752Z,1.52
2022-11-12T12:34:02.720Z,1.70
2022-11-12T12:36:53.792Z,1.58
2022-11-12T12:39:58.161Z,1.30
2022-11-12T12:43:00.941Z,1.42
2022-11-12T12:45:47.478Z,1.45
2022-11-12T12:48:36.952Z,1.60
2022-11-12T12:51:23.004Z,1.50
2022-11-12T12:54:39.721Z,1.02
2022-11-12T12:57:35.362Z,1.10
2022-11-12T13:00:30.652Z,1.20
2022-11-12T13:03:50.405Z,1.30
2022-11-12T13:06:40.364Z,1.48
2022-11-12T13:09:27.215Z,1.30
2022-11-12T13:12:16.433Z,1.15
2022-11-12T13:15:16.230Z,1.20
2022-11-12T13:18:01.762Z,1.30
2022-11-12T13:21:20.716Z,1.42
2022-11-12T13:24:12.616Z,1.05
2022-11-12T13:26:59.322Z,1.27
2022-11-12T13:29:47.203Z,1.20
2022-11-12T13:32:44.565Z,1.30
2022-11-12T13:35:38.472Z,1.50
2022-11-12T13:38:24.326Z,1.40
2022-11-12T13:41:42.151Z,1.35
2022-11-12T13:44:28.841Z,1.23
2022-11-12T13:47:21.194Z,1.48
2022-11-12T13:50:10.554Z,1.17
2022-11-12T13:52:56.437Z,1.25
2022-11-12T13:55:49.836Z,1.50
2022-11-12T13:58:36.620Z,1.15
2022-11-12T14:01:24.339Z,1.25
2022-11-12T14:04:18.735Z,1.80
2022-11-12T14:07:26.943Z,1.33
2022-11-12T14:10:30.545Z,1.27
2022-11-12T14:13:22.859Z,1.45
2022-11-12T14:16:24.062Z,1.63
2022-11-12T14:19:28.475Z,1.77
2022-11-12T14:22:22.012Z,1.58
2022-11-12T14:25:20.962Z,1.48
2022-11-12T14:28:24.032Z,1.60
2022-11-12T14:31:15.520Z,1.58
2022-11-12T14:34:37.782Z,1.70
2022-11-12T14:37:42.965Z,1.60
2022-11-12T14:40:31.099Z,1.30
2022-11-12T14:43:33.895Z,1.65
2022-11-12T14:46:39.348Z,1.70
2022-11-12T14:49:30.762Z,1.90
2022-11-12T14:52:18.517Z,2.03
2022-11-12T14:55:13.561Z,1.85
2022-11-12T14:58:00.426Z,2.00
2022-11-12T15:00:49.455Z,2.13
2022-11-12T15:03:36.266Z,2.20
2022-11-12T15:06:34.018Z,1.70
2022-11-12T15:09:31.863Z,2.08
2022-11-12T15:12:27.147Z,1.88
2022-11-12T15:15:22.788Z,1.85
2022-11-12T15:18:20.547Z,2.30
2022-11-12T15:21:24.677Z,1.83
2022-11-12T15:24:18.110Z,2.17
2022-11-12T15:27:32.648Z,2.30
2022-11-12T15:30:36.221Z,2.42
2022-11-12T15:33:23.362Z,1.90
2022-11-12T15:36:27.108Z,2.53
2022-11-12T15:39:14.356Z,2.45
2022-11-12T15:42:03.588Z,2.20
2022-11-12T15:45:00.255Z,2.17
2022-11-12T15:47:46.578Z,2.03
2022-11-12T15:50:32.293Z,2.30
2022-11-12T15:53:18.573Z,2.30
2022-11-12T15:56:06.679Z,2.45
2022-11-12T15:58:52.898Z,3.08
2022-11-12T16:01:38.535Z,2.90
2022-11-12T16:04:24.571Z,3.25
2022-11-12T16:07:10.606Z,3.35
2022-11-12T16:09:56.034Z,3.30
2022-11-12T16:12:42.806Z,3.17
2022-11-12T16:15:28.814Z,3.83
2022-11-12T16:18:14.358Z,3.55
2022-11-12T16:21:00.329Z,4.38
2022-11-12T16:23:47.321Z,3.53
2022-11-12T16:26:33.885Z,3.50
2022-11-12T16:29:19.771Z,6.38
2022-11-12T16:32:05.874Z,13.25
2022-11-12T16:34:51.121Z,28.80
2022-11-12T16:37:38.533Z,20.83
2022-11-12T16:40:27.033Z,28.25
2022-11-12T16:43:12.643Z,21.08
2022-11-12T16:46:00.344Z,24.98
2022-11-12T16:48:46.452Z,27.17
2022-11-12T16:51:32.032Z,26.33
2022-11-12T16:54:17.458Z,22.25
2022-11-12T16:57:03.060Z,17.88
2022-11-12T16:59:48.686Z,14.10
2022-11-12T17:02:36.932Z,14.02
2022-11-12T17:05:26.852Z,11.98
2022-11-12T17:08:14.586Z,9.60
2022-11-12T17:11:06.613Z,7.47
2022-11-12T17:13:52.455Z,7.43
2022-11-12T17:16:37.971Z,6.50
2022-11-12T17:19:23.391Z,6.80
2022-11-12T17:22:08.970Z,8.05
2022-11-12T17:24:54.399Z,7.68
2022-11-12T17:27:40.467Z,7.00
2022-11-12T17:30:26.349Z,6.95
2022-11-12T17:33:12.271Z,7.40
2022-11-12T17:36:02.850Z,7.05
2022-11-12T17:38:48.956Z,7.55
2022-11-12T17:41:34.507Z,7.28
2022-11-12T17:44:20.858Z,6.75
2022-11-12T17:47:06.713Z,7.53
2022-11-12T17:49:52.640Z,7.53
2022-11-12T17:52:38.459Z,6.55
2022-11-12T17:55:24.957Z,8.65
2022-11-12T17:58:10.834Z,7.38
2022-11-12T18:01:03.965Z,7.63
2022-11-12T18:06:52.902Z,5.82
2022-11-12T18:09:38.953Z,5.38
2022-11-12T18:12:24.868Z,5.30
2022-11-12T18:15:12.903Z,5.80
2022-11-12T18:17:58.788Z,7.22
2022-11-12T18:20:44.494Z,7.25
2022-11-12T18:23:30.506Z,7.53
2022-11-12T18:26:18.810Z,7.63
2022-11-12T18:29:04.786Z,6.13
2022-11-12T18:31:50.512Z,6.97
2022-11-12T18:34:39.928Z,7.22
2022-11-12T18:37:25.969Z,11.60
2022-11-12T18:40:11.700Z,14.25
2022-11-12T18:42:57.426Z,13.80
2022-11-12T18:45:43.040Z,14.32
2022-11-12T18:48:29.810Z,12.85
2022-11-12T18:51:18.362Z,12.25
2022-11-12T18:54:04.265Z,12.02
2022-11-12T18:56:50.044Z,13.40
2022-11-12T18:59:35.505Z,12.35
2022-11-12T19:02:21.719Z,11.68
2022-11-12T19:05:07.790Z,11.35
2022-11-12T19:07:53.610Z,14.07
2022-11-12T19:10:39.126Z,13.63
2022-11-12T19:13:25.617Z,13.90
2022-11-12T19:16:19.636Z,13.98
2022-11-12T19:19:05.267Z,14.10
2022-11-12T19:21:51.303Z,12.90
2022-11-12T19:24:37.442Z,13.80
2022-11-12T19:27:23.414Z,12.05
2022-11-12T19:30:09.804Z,11.95
2022-11-12T19:32:56.151Z,12.90
2022-11-12T19:35:41.604Z,11.68
2022-11-12T19:38:28.084Z,11.52
2022-11-12T19:41:19.725Z,12.85
2022-11-12T19:44:06.093Z,12.23
2022-11-12T19:46:51.898Z,12.32
2022-11-12T19:49:37.606Z,10.48
2022-11-12T19:52:23.638Z,11.15
2022-11-12T19:55:09.444Z,11.52
2022-11-12T19:57:55.592Z,10.38
2022-11-12T20:00:41.478Z,9.32
2022-11-12T20:03:29.384Z,8.82
2022-11-12T20:06:18.421Z,8.88
2022-11-12T20:09:04.449Z,8.82
2022-11-12T20:11:51.152Z,9.27
2022-11-12T20:14:37.251Z,9.60
2022-11-12T20:17:22.666Z,9.60
2022-11-12T20:20:09.646Z,9.48
2022-11-12T20:22:55.171Z,11.35
2022-11-12T20:25:40.885Z,10.38
2022-11-12T20:28:26.444Z,10.60
2022-11-12T20:31:19.857Z,11.07
2022-11-12T20:34:05.894Z,10.55
2022-11-12T20:36:51.879Z,9.07
2022-11-12T20:39:37.759Z,8.90
2022-11-12T20:42:23.668Z,10.27
2022-11-12T20:45:09.759Z,9.68
2022-11-12T20:47:56.288Z,10.00
2022-11-12T20:51:02.296Z,10.43
2022-11-12T20:53:47.981Z,14.50
2022-11-12T20:56:33.933Z,16.58
2022-11-12T20:59:21.636Z,14.60
2022-11-12T21:02:10.138Z,13.25
2022-11-12T21:04:56.176Z,13.75
2022-11-12T21:07:41.860Z,14.40
2022-11-12T21:10:27.780Z,13.88
2022-11-12T21:13:13.722Z,13.43
2022-11-12T21:15:59.630Z,13.05
2022-11-12T21:18:45.516Z,13.15
2022-11-12T21:21:31.742Z,12.05
2022-11-12T21:24:17.609Z,10.90
2022-11-12T21:27:03.535Z,12.18
2022-11-12T21:29:49.290Z,12.45
2022-11-12T21:32:35.253Z,11.55
2022-11-12T21:35:20.901Z,12.43
2022-11-12T21:38:06.687Z,11.88
2022-11-12T21:40:52.428Z,11.18
2022-11-12T21:43:46.105Z,11.13
2022-11-12T21:46:32.892Z,11.05
2022-11-12T21:49:18.662Z,10.65
2022-11-12T21:52:04.866Z,12.38
2022-11-12T21:54:50.686Z,12.30
2022-11-12T21:57:39.135Z,12.48
2022-11-12T22:00:41.465Z,12.90
2022-11-12T22:03:32.644Z,12.73
2022-11-12T22:06:19.927Z,13.35
2022-11-12T22:09:05.711Z,14.35
2022-11-12T22:11:51.410Z,12.75
2022-11-12T22:14:37.182Z,12.50
2022-11-12T22:17:22.764Z,12.27
2022-11-12T22:20:10.202Z,12.20
2022-11-12T22:22:57.236Z,12.15
2022-11-12T22:25:42.806Z,11.77
2022-11-12T22:28:28.942Z,13.55
2022-11-12T22:31:17.224Z,12.50
2022-11-12T22:34:03.439Z,12.70
2022-11-12T22:36:49.650Z,14.15
2022-11-12T22:39:35.595Z,11.75
2022-11-12T22:42:21.535Z,12.43
2022-11-12T22:45:08.224Z,13.00
2022-11-12T22:47:53.984Z,12.77
2022-11-12T22:50:40.090Z,12.55
2022-11-12T22:53:26.268Z,14.05
2022-11-12T22:56:15.129Z,13.68
2022-11-12T22:59:03.639Z,14.63
2022-11-12T23:01:49.849Z,14.07
2022-11-12T23:04:35.694Z,13.60
2022-11-12T23:07:22.036Z,14.15
2022-11-12T23:10:08.255Z,14.05
2022-11-12T23:12:54.919Z,14.98
2022-11-12T23:15:43.537Z,15.55
2022-11-12T23:18:30.184Z,14.32
2022-11-12T23:21:19.753Z,14.55
2022-11-12T23:24:05.590Z,12.05
2022-11-12T23:26:51.095Z,13.02
2022-11-12T23:29:37.598Z,12.18
2022-11-12T23:32:22.948Z,12.00
2022-11-12T23:35:08.755Z,11.63
2022-11-12T23:37:54.236Z,11.80
2022-11-12T23:40:40.115Z,11.65
2022-11-12T23:43:26.347Z,10.80
2022-11-12T23:46:12.702Z,11.30
2022-11-12T23:48:58.185Z,11.13
2022-11-12T23:51:44.068Z,11.40
2022-11-12T23:54:29.561Z,11.13
2022-11-12T23:57:15.226Z,11.02
